Time;durP1;ratioP1;P1;durP2;ratioP2;P2;SDS_P1;SDS_P2;PMS_P1;PMS_P2;Temp;Humidity;BMP_temperature;BMP_pressure;BME280_temperature;BME280_humidity;BME280_pressure;Samples;Min_cycle;Max_cycle;Signal;HPM_P1;HPM_P2
2022/04/07 04:17:50;;;;;;;3.35;1.80;;;;;;;8.86;82.52;97049.63;2617263;47;20126;-64
2022/04/07 04:20:20;;;;;;;2.85;1.42;;;;;;;8.86;82.57;97052.25;2618516;54;20037;-63
2022/04/07 04:22:50;;;;;;;1.83;1.48;;;;;;;8.86;82.71;97034.63;2618756;54;20554;-64
2022/04/07 04:25:20;;;;;;;1.27;1.17;;;;;;;8.86;83.18;97031.97;2618528;54;20040;-64
2022/04/07 04:27:50;;;;;;;1.40;1.30;;;;;;;8.86;83.34;97031.97;2618084;54;20542;-64
2022/04/07 04:30:20;;;;;;;2.33;1.40;;;;;;;8.85;83.92;97033.00;2618211;54;20554;-64
2022/04/07 04:32:52;;;;;;;1.25;1.17;;;;;;;8.88;83.59;97024.63;2619579;39;20445;-63
2022/04/07 04:35:22;;;;;;;1.10;1.00;;;;;;;8.89;83.55;97018.34;2618347;47;20549;-63
2022/04/07 04:37:52;;;;;;;1.10;1.00;;;;;;;8.81;83.62;97021.28;2618679;54;20034;-63
2022/04/07 04:40:21;;;;;;;1.00;1.00;;;;;;;8.84;83.94;97022.69;2618792;54;20558;-64
2022/04/07 04:42:51;;;;;;;1.55;1.08;;;;;;;8.82;83.44;97030.03;2618932;47;20039;-62
2022/04/07 04:45:21;;;;;;;1.83;1.60;;;;;;;8.84;83.10;97015.56;2619360;54;20026;-63
2022/04/07 04:47:53;;;;;;;1.40;1.30;;;;;;;8.86;82.99;97013.53;2618705;54;20121;-63
2022/04/07 04:50:23;;;;;;;3.85;1.75;;;;;;;8.87;82.64;97009.88;2619527;54;20031;-63
2022/04/07 04:52:52;;;;;;;3.30;1.77;;;;;;;8.91;82.51;97013.66;2618329;47;20027;-63
2022/04/07 04:55:22;;;;;;;2.53;1.80;;;;;;;8.94;82.11;97007.16;2618717;54;20039;-64
2022/04/07 04:57:56;;;;;;;1.75;1.65;;;;;;;8.91;82.24;96999.69;2618706;54;20042;-64
2022/04/07 05:00:26;;;;;;;2.10;1.65;;;;;;;8.93;82.37;96994.97;2619029;54;20573;-63
2022/04/07 05:02:58;;;;;;;2.13;1.60;;;;;;;8.93;82.19;96990.50;2618564;54;20030;-64
2022/04/07 05:05:28;;;;;;;2.53;1.40;;;;;;;8.93;81.57;96977.31;2617705;54;20065;-64
2022/04/07 05:07:58;;;;;;;1.92;1.70;;;;;;;8.95;81.46;96985.03;2618068;54;20031;-64
2022/04/07 05:10:28;;;;;;;1.60;1.42;;;;;;;8.94;81.50;96978.16;2617667;54;20027;-64
2022/04/07 05:12:58;;;;;;;2.03;1.58;;;;;;;8.99;81.37;96972.19;2617600;54;20035;-64
2022/04/07 05:15:28;;;;;;;1.60;1.40;;;;;;;8.99;80.55;96969.56;2618463;54;20125;-63
2022/04/07 05:18:00;;;;;;;3.22;1.50;;;;;;;8.99;80.74;96959.81;2618229;54;20053;-63
2022/04/07 05:20:30;;;;;;;3.10;1.85;;;;;;;8.96;80.53;96964.75;2617930;54;20054;-62
2022/04/07 05:23:00;;;;;;;3.13;1.80;;;;;;;8.99;80.61;96957.19;2617928;54;20046;-64
2022/04/07 05:25:29;;;;;;;2.17;1.70;;;;;;;8.99;80.33;96967.72;2618545;54;20539;-63
2022/04/07 05:27:59;;;;;;;3.95;1.58;;;;;;;9.01;80.99;96960.38;2617612;54;20045;-63
2022/04/07 05:30:28;;;;;;;3.42;1.90;;;;;;;9.04;81.09;96957.31;2618740;39;20447;-63
2022/04/07 05:33:01;;;;;;;4.43;1.98;;;;;;;9.05;81.13;96951.00;2618316;54;20026;-63
2022/04/07 05:35:31;;;;;;;3.28;1.58;;;;;;;9.07;80.84;96961.31;2618402;54;20031;-63
2022/04/07 05:38:02;;;;;;;3.00;1.60;;;;;;;9.00;81.28;96953.50;2622289;54;20043;-64
2022/04/07 05:40:33;;;;;;;4.50;1.60;;;;;;;9.02;81.44;96945.38;2622720;54;20078;-63
2022/04/07 05:43:04;;;;;;;4.15;2.03;;;;;;;8.98;81.74;96933.69;2620413;54;20019;-63
2022/04/07 05:45:34;;;;;;;2.00;1.25;;;;;;;8.99;81.79;96924.75;2618729;54;20158;-63
2022/04/07 05:48:07;;;;;;;1.60;1.50;;;;;;;9.03;81.89;96921.44;2618114;54;20059;-63
2022/04/07 05:50:37;;;;;;;3.13;2.25;;;;;;;8.97;82.19;96918.91;2618381;54;20037;-64
2022/04/07 05:53:06;;;;;;;2.20;2.00;;;;;;;8.95;82.27;96910.44;2618696;54;20034;-63
2022/04/07 05:55:36;;;;;;;3.55;2.03;;;;;;;8.98;82.38;96894.16;2618235;54;20029;-64
2022/04/07 05:58:07;;;;;;;2.80;1.00;;;;;;;8.99;82.20;96914.22;2618612;39;20454;-63
2022/04/07 06:00:37;;;;;;;2.15;1.25;;;;;;;8.97;82.26;96903.09;2618439;54;20030;-63
2022/04/07 06:03:09;;;;;;;3.63;2.38;;;;;;;8.98;82.41;96907.31;2618296;54;20561;-63
2022/04/07 06:05:39;;;;;;;3.88;3.42;;;;;;;8.99;82.57;96896.56;2618257;54;20036;-62
2022/04/07 06:08:09;;;;;;;1.70;1.60;;;;;;;8.96;82.85;96897.03;2621555;54;20038;-64
2022/04/07 06:10:39;;;;;;;1.55;1.25;;;;;;;8.92;83.22;96883.50;2624021;54;20031;-61
2022/04/07 06:13:09;;;;;;;1.73;1.13;;;;;;;8.95;83.63;96895.44;2621782;54;20038;-62
2022/04/07 06:15:39;;;;;;;1.60;0.80;;;;;;;8.93;83.37;96892.19;2623099;54;20586;-62
2022/04/07 06:18:13;;;;;;;1.00;0.90;;;;;;;8.89;83.39;96888.41;2622639;54;20542;-63
2022/04/07 06:20:42;;;;;;;2.00;1.15;;;;;;;8.87;83.97;96864.94;2622532;54;20040;-62
2022/04/07 06:23:12;;;;;;;0.88;0.88;;;;;;;8.91;84.54;96876.63;2619472;54;20039;-62
2022/04/07 06:25:42;;;;;;;1.70;1.20;;;;;;;8.95;84.44;96873.53;2618155;54;20550;-62
2022/04/07 06:28:12;;;;;;;0.77;0.70;;;;;;;8.99;83.63;96862.31;2617291;47;20114;-64
2022/04/07 06:30:42;;;;;;;1.70;0.88;;;;;;;9.04;83.44;96856.34;2617983;54;20026;-64
2022/04/07 06:33:14;;;;;;;2.08;0.88;;;;;;;9.11;83.32;96849.13;2617941;54;20031;-62
2022/04/07 06:35:44;;;;;;;0.77;0.70;;;;;;;9.17;82.85;96835.81;2618118;54;20038;-61
2022/04/07 06:38:13;;;;;;;1.30;0.98;;;;;;;9.22;82.98;96829.84;2618125;54;20030;-61
2022/04/07 06:40:43;;;;;;;2.17;1.55;;;;;;;9.31;82.85;96833.75;2618180;54;20038;-64
2022/04/07 06:43:13;;;;;;;1.92;1.15;;;;;;;9.28;82.59;96821.03;2618348;39;20424;-64
2022/04/07 06:45:43;;;;;;;2.83;2.10;;;;;;;9.33;82.54;96818.47;2617956;54;20038;-62
2022/04/07 06:48:15;;;;;;;2.80;0.90;;;;;;;9.35;82.07;96818.25;2617635;54;20179;-62
2022/04/07 06:50:45;;;;;;;2.60;0.80;;;;;;;9.30;81.84;96808.38;2618089;54;20035;-62
2022/04/07 06:53:16;;;;;;;2.58;1.00;;;;;;;9.37;82.38;96808.28;2618310;39;20453;-62
2022/04/07 06:55:46;;;;;;;2.97;1.02;;;;;;;9.43;82.60;96787.06;2618669;39;20431;-63
2022/04/07 06:58:16;;;;;;;1.35;1.00;;;;;;;9.47;81.82;96783.94;2617248;47;20535;-64
2022/04/07 07:00:47;;;;;;;2.65;1.27;;;;;;;9.47;82.49;96779.47;2618715;54;20045;-63
2022/04/07 07:03:19;;;;;;;1.25;1.10;;;;;;;9.44;82.08;96774.66;2619659;54;20030;-61
2022/04/07 07:05:49;;;;;;;2.13;0.90;;;;;;;9.41;82.10;96775.91;2618346;54;20034;-62
2022/04/07 07:08:20;;;;;;;2.72;0.90;;;;;;;9.38;82.18;96765.84;2617883;39;20369;-63
2022/04/07 07:10:51;;;;;;;0.70;0.70;;;;;;;9.45;81.94;96751.72;2617946;54;20038;-62
2022/04/07 07:13:24;;;;;;;0.80;0.77;;;;;;;9.43;83.00;96744.06;2617955;54;20030;-63
2022/04/07 07:15:57;;;;;;;1.98;0.88;;;;;;;9.41;83.40;96744.28;2617899;54;20065;-62
2022/04/07 07:18:30;;;;;;;1.05;0.80;;;;;;;9.46;84.22;96737.50;2617742;54;20082;-63
2022/04/07 07:20:59;;;;;;;3.65;1.20;;;;;;;9.58;83.88;96730.34;2618111;39;20191;-63
2022/04/07 07:23:29;;;;;;;1.13;1.02;;;;;;;9.82;83.49;96725.75;2617914;54;20034;-64
2022/04/07 07:25:58;;;;;;;2.40;0.70;;;;;;;9.95;81.85;96722.00;2618509;39;20443;-64
2022/04/07 07:28:28;;;;;;;1.00;0.70;;;;;;;10.03;81.04;96722.41;2618113;54;20225;-64
2022/04/07 07:30:59;;;;;;;1.13;0.70;;;;;;;10.06;80.82;96705.28;2619224;39;20388;-65
2022/04/07 07:33:32;;;;;;;1.35;0.77;;;;;;;10.16;80.44;96710.72;2618942;54;20082;-63
2022/04/07 07:36:01;;;;;;;0.80;0.80;;;;;;;10.29;81.17;96705.16;2618877;54;20054;-64
2022/04/07 07:38:31;;;;;;;1.77;0.70;;;;;;;10.26;79.97;96712.75;2618408;54;20043;-62
2022/04/07 07:41:01;;;;;;;1.90;1.00;;;;;;;10.12;79.80;96713.06;2620319;39;20423;-64
2022/04/07 07:43:30;;;;;;;0.73;0.55;;;;;;;9.97;80.35;96683.78;2621199;54;20038;-64
2022/04/07 07:46:00;;;;;;;2.38;0.70;;;;;;;9.89;80.72;96694.72;2619483;54;20034;-62
2022/04/07 07:48:32;;;;;;;3.42;0.73;;;;;;;9.86;81.41;96684.66;2618579;54;20030;-63
2022/04/07 07:51:02;;;;;;;0.60;0.60;;;;;;;9.90;81.98;96686.56;2619521;39;20418;-63
2022/04/07 07:53:32;;;;;;;2.03;0.50;;;;;;;9.87;81.46;96691.50;2618920;54;20031;-63
2022/04/07 07:56:02;;;;;;;0.95;0.80;;;;;;;9.82;81.36;96689.59;2618645;54;20038;-64
2022/04/07 07:58:31;;;;;;;0.50;0.50;;;;;;;9.87;81.91;96665.91;2618496;54;20035;-63
2022/04/07 08:01:02;;;;;;;1.73;0.80;;;;;;;9.92;82.08;96665.22;2619528;39;20432;-64
2022/04/07 08:03:35;;;;;;;2.60;1.15;;;;;;;9.99;82.02;96672.97;2620154;54;20082;-62
2022/04/07 08:06:04;;;;;;;1.92;0.73;;;;;;;10.05;81.83;96669.38;2620753;54;20031;-63
2022/04/07 08:08:34;;;;;;;0.63;0.63;;;;;;;10.10;81.20;96654.41;2622274;54;20037;-62
2022/04/07 08:11:04;;;;;;;0.95;0.50;;;;;;;10.11;81.51;96660.47;2623778;54;20035;-62
2022/04/07 08:13:33;;;;;;;1.73;0.73;;;;;;;10.10;81.78;96661.53;2623001;54;20061;-62
2022/04/07 08:16:03;;;;;;;1.02;0.77;;;;;;;10.18;81.84;96663.75;2623531;54;20038;-63
2022/04/07 08:18:35;;;;;;;1.13;0.50;;;;;;;10.27;81.88;96648.34;2623411;54;20052;-63
2022/04/07 08:21:05;;;;;;;2.10;0.93;;;;;;;10.30;82.59;96650.50;2623588;54;20027;-63
2022/04/07 08:23:34;;;;;;;2.63;1.00;;;;;;;10.38;82.38;96655.38;2623336;54;20027;-62
2022/04/07 08:26:04;;;;;;;2.63;0.95;;;;;;;10.41;81.68;96639.81;2623470;39;20419;-64
2022/04/07 08:28:34;;;;;;;0.40;0.40;;;;;;;10.34;81.46;96641.84;2622637;54;20042;-64
2022/04/07 08:31:03;;;;;;;1.60;0.63;;;;;;;10.34;81.85;96631.28;2622535;54;20030;-63
2022/04/07 08:33:36;;;;;;;2.78;0.85;;;;;;;10.37;82.10;96632.63;2621643;54;20635;-63
2022/04/07 08:36:06;;;;;;;1.75;0.85;;;;;;;10.41;81.81;96621.34;2621537;54;20126;-63
2022/04/07 08:38:35;;;;;;;0.60;0.60;;;;;;;10.53;81.32;96615.13;2621170;54;20031;-63
2022/04/07 08:41:11;;;;;;;1.77;0.82;;;;;;;10.54;81.52;96628.09;2620450;54;20030;-64
2022/04/07 08:43:42;;;;;;;0.88;0.60;;;;;;;10.49;81.52;96637.78;2620913;54;20073;-64
2022/04/07 08:46:13;;;;;;;1.15;0.75;;;;;;;10.52;81.87;96621.47;2621540;39;20470;-64
2022/04/07 08:48:46;;;;;;;0.98;0.60;;;;;;;10.60;81.44;96613.09;2621432;54;20036;-65
2022/04/07 08:51:16;;;;;;;2.25;0.90;;;;;;;10.70;81.05;96628.28;2622014;54;20042;-63
2022/04/07 08:53:46;;;;;;;1.15;0.68;;;;;;;10.65;80.96;96599.94;2622553;39;20120;-64
2022/04/07 08:56:16;;;;;;;1.13;0.60;;;;;;;10.61;80.65;96602.31;2618774;54;20151;-64
2022/04/07 08:58:45;;;;;;;0.70;0.50;;;;;;;10.62;80.76;96609.19;2618808;39;20435;-63
2022/04/07 09:01:15;;;;;;;0.40;0.40;;;;;;;10.50;79.95;96602.44;2618822;39;20457;-63
2022/04/07 09:03:47;;;;;;;2.25;0.80;;;;;;;10.43;81.14;96604.44;2618128;54;20062;-65
2022/04/07 09:06:18;;;;;;;0.98;0.80;;;;;;;10.49;80.86;96596.34;2618345;54;20046;-63
2022/04/07 09:08:48;;;;;;;5.03;0.70;;;;;;;10.64;80.83;96585.16;2618158;54;20029;-63
2022/04/07 09:11:21;;;;;;;1.20;0.60;;;;;;;10.52;80.49;96577.34;2617726;47;20023;-64
2022/04/07 09:13:52;;;;;;;0.80;0.50;;;;;;;10.45;81.12;96578.56;2618302;54;20033;-62
2022/04/07 09:16:22;;;;;;;1.73;0.63;;;;;;;10.45;81.84;96565.34;2618978;39;20430;-64
2022/04/07 09:18:56;;;;;;;0.63;0.60;;;;;;;10.47;82.10;96577.28;2618054;54;20039;-63
2022/04/07 09:21:27;;;;;;;1.40;0.60;;;;;;;10.45;82.44;96570.66;2618363;54;20035;-62
2022/04/07 09:23:58;;;;;;;0.90;0.77;;;;;;;10.40;82.48;96587.22;2618354;54;20046;-64
2022/04/07 09:26:27;;;;;;;0.70;0.60;;;;;;;10.47;82.36;96579.13;2618343;54;20042;-63
2022/04/07 09:28:58;;;;;;;0.68;0.60;;;;;;;10.56;82.36;96564.44;2618267;54;20090;-62
2022/04/07 09:31:27;;;;;;;3.58;2.70;;;;;;;10.64;83.81;96572.72;2618349;54;20034;-63
2022/04/07 09:34:01;;;;;;;1.88;0.80;;;;;;;10.55;83.96;96571.56;2618265;54;20114;-63
2022/04/07 09:36:31;;;;;;;0.82;0.70;;;;;;;10.37;84.41;96571.91;2618248;54;20041;-64
2022/04/07 09:39:01;;;;;;;3.67;3.03;;;;;;;10.39;84.76;96551.31;2617443;54;20050;-62
2022/04/07 09:41:32;;;;;;;2.45;1.35;;;;;;;10.45;84.47;96565.34;2618291;54;20030;-63
2022/04/07 09:44:04;;;;;;;6.25;4.95;;;;;;;10.59;84.38;96548.91;2618368;54;20067;-64
2022/04/07 09:46:38;;;;;;;1.13;0.88;;;;;;;10.76;83.98;96548.81;2617753;47;20078;-63
2022/04/07 09:49:14;;;;;;;2.67;0.52;;;;;;;10.98;83.47;96540.03;2617439;54;20085;-63
2022/04/07 09:51:47;;;;;;;0.73;0.70;;;;;;;11.15;83.22;96524.88;2618085;47;20058;-62
2022/04/07 09:54:18;;;;;;;1.25;0.70;;;;;;;11.27;82.60;96528.16;2618478;54;20035;-63
2022/04/07 09:56:49;;;;;;;1.40;0.80;;;;;;;11.51;82.17;96519.84;2618428;47;20046;-63
2022/04/07 09:59:20;;;;;;;0.82;0.50;;;;;;;11.62;81.74;96524.16;2618809;54;20042;-63
2022/04/07 10:01:51;;;;;;;3.50;0.95;;;;;;;11.70;81.29;96521.03;2618575;54;20039;-64
2022/04/07 10:04:25;;;;;;;0.60;0.60;;;;;;;11.58;80.59;96486.81;2618544;54;20052;-63
2022/04/07 10:06:56;;;;;;;0.68;0.50;;;;;;;11.64;80.73;96493.75;2618008;54;20045;-62
2022/04/07 10:09:28;;;;;;;0.88;0.60;;;;;;;11.77;79.83;96467.91;2618691;54;20823;-63
2022/04/07 10:11:58;;;;;;;2.55;1.10;;;;;;;11.92;79.40;96461.88;2618683;54;20026;-63
2022/04/07 10:14:30;;;;;;;0.38;0.30;;;;;;;11.88;78.82;96462.44;2617857;54;20422;-63
2022/04/07 10:17:00;;;;;;;0.55;0.40;;;;;;;11.84;78.76;96448.13;2618757;54;20034;-62
2022/04/07 10:19:39;;;;;;;1.38;0.50;;;;;;;11.99;78.49;96465.09;2618467;54;20023;-62
2022/04/07 10:22:26;;;;;;;0.30;0.30;;;;;;;12.25;77.99;96466.03;2618608;54;20033;-62
2022/04/07 10:25:02;;;;;;;0.60;0.50;;;;;;;12.42;77.57;96449.91;2618644;54;20122;-63
2022/04/07 10:27:38;;;;;;;0.90;0.60;;;;;;;12.04;77.40;96463.28;2618268;54;20030;-63
2022/04/07 10:30:11;;;;;;;0.70;0.70;;;;;;;12.00;79.39;96470.16;2618313;54;20044;-63
2022/04/07 10:32:43;;;;;;;0.55;0.55;;;;;;;12.06;78.80;96457.72;2618111;47;20038;-64
2022/04/07 10:35:34;;;;;;;0.98;0.70;;;;;;;11.98;79.22;96445.00;2618384;54;20535;-63
2022/04/07 10:38:07;;;;;;;0.70;0.60;;;;;;;11.96;79.51;96455.03;2617771;54;20037;-64
2022/04/07 10:40:39;;;;;;;2.03;0.47;;;;;;;12.01;79.20;96449.78;2618388;54;20054;-63
2022/04/07 10:43:21;;;;;;;2.92;0.70;;;;;;;12.02;78.55;96446.06;2617356;54;20030;-64
2022/04/07 10:45:55;;;;;;;0.38;0.38;;;;;;;11.95;78.66;96438.34;2617308;47;20045;-63
2022/04/07 10:48:31;;;;;;;0.63;0.63;;;;;;;12.21;79.12;96426.00;2617792;54;20035;-63
2022/04/07 10:51:04;;;;;;;0.52;0.50;;;;;;;12.38;79.36;96399.28;2617893;54;20054;-63
2022/04/07 10:53:35;;;;;;;;;;;;;;;12.37;77.77;96419.69;2618225;54;20030;-63
2022/04/07 10:56:10;;;;;;;1.23;0.57;;;;;;;12.55;77.93;96393.75;2618006;54;19946;-63
2022/04/07 10:58:46;;;;;;;0.40;0.40;;;;;;;12.55;79.19;96415.75;2617110;50;20034;-63
2022/04/07 11:01:17;;;;;;;0.80;0.60;;;;;;;12.33;78.57;96407.25;2618128;54;20034;-64
2022/04/07 11:04:16;;;;;;;1.55;0.60;;;;;;;12.34;78.88;96400.88;2618509;54;20027;-64
2022/04/07 11:07:28;;;;;;;0.77;0.57;;;;;;;12.42;79.16;96381.03;2617946;54;20065;-63
2022/04/07 11:10:14;;;;;;;0.68;0.45;;;;;;;12.53;78.23;96377.31;2618064;54;20031;-62
2022/04/07 11:12:48;;;;;;;0.55;0.55;;;;;;;12.82;77.82;96374.94;2618270;54;20562;-62
2022/04/07 11:15:32;;;;;;;0.40;0.40;;;;;;;13.06;77.24;96377.81;2618642;54;20035;-62
2022/04/07 11:18:25;;;;;;;1.15;0.57;;;;;;;13.15;76.29;96368.28;2621028;54;20038;-62
2022/04/07 11:21:03;;;;;;;1.25;0.50;;;;;;;12.92;75.73;96382.88;2620915;54;20589;-62
2022/04/07 11:23:44;;;;;;;0.35;0.32;;;;;;;12.80;76.84;96388.44;2619050;54;20035;-63
2022/04/07 11:26:22;;;;;;;0.47;0.45;;;;;;;12.92;76.69;96374.94;2618891;54;20060;-63
2022/04/07 11:29:07;;;;;;;0.50;0.50;;;;;;;12.96;77.23;96362.72;2618631;54;20027;-63
2022/04/07 11:31:45;;;;;;;0.60;0.50;;;;;;;12.98;77.01;96363.28;2620014;39;20456;-63
2022/04/07 11:34:45;;;;;;;0.50;0.50;;;;;;;13.09;76.88;96358.72;2619140;54;20235;-64
2022/04/07 11:37:17;;;;;;;0.50;0.50;;;;;;;12.94;76.91;96358.75;2623120;47;20034;-63
2022/04/07 11:39:48;;;;;;;1.83;0.50;;;;;;;12.84;77.46;96347.09;2621627;54;20034;-63
2022/04/07 11:42:22;;;;;;;2.20;0.80;;;;;;;12.72;77.13;96327.22;2619012;54;20566;-63
2022/04/07 11:44:59;;;;;;;0.50;0.50;;;;;;;12.56;78.11;96350.28;2618991;54;20035;-62
2022/04/07 11:47:32;;;;;;;0.35;0.35;;;;;;;12.51;78.27;96353.72;2617722;46;20065;-63
2022/04/07 11:50:02;;;;;;;0.73;0.50;;;;;;;12.50;78.78;96338.09;2618863;54;20026;-64
2022/04/07 11:52:34;;;;;;;0.50;0.50;;;;;;;12.47;78.32;96323.50;2619184;54;20547;-64
2022/04/07 11:55:07;;;;;;;0.82;0.60;;;;;;;12.44;78.65;96344.44;2619021;54;20550;-65
2022/04/07 11:57:41;;;;;;;0.60;0.60;;;;;;;12.59;79.19;96328.56;2618713;54;20035;-65
2022/04/07 12:00:12;;;;;;;1.13;0.50;;;;;;;12.67;79.06;96328.03;2619034;54;20038;-64
2022/04/07 12:02:43;;;;;;;0.40;0.40;;;;;;;12.49;79.13;96337.31;2618501;54;20058;-65
2022/04/07 12:05:13;;;;;;;1.08;0.88;;;;;;;12.51;79.24;96323.78;2618892;54;20024;-65
2022/04/07 12:07:42;;;;;;;0.60;0.55;;;;;;;12.60;79.37;96324.84;2618240;54;20550;-64
2022/04/07 12:10:14;;;;;;;0.50;0.50;;;;;;;12.66;78.71;96328.31;2617961;46;20054;-63
2022/04/07 12:12:48;;;;;;;0.70;0.70;;;;;;;12.69;79.29;96325.09;2618512;54;20081;-65
2022/04/07 12:15:19;;;;;;;0.47;0.47;;;;;;;12.70;79.19;96343.41;2618719;54;20570;-64
2022/04/07 12:18:01;;;;;;;0.55;0.55;;;;;;;12.83;78.87;96328.81;2618471;46;20069;-63
2022/04/07 12:20:31;;;;;;;1.30;1.00;;;;;;;12.76;79.00;96334.38;2618892;54;20038;-64
2022/04/07 12:23:08;;;;;;;0.80;0.60;;;;;;;12.62;78.35;96326.16;2619061;54;20030;-63
2022/04/07 12:25:39;;;;;;;1.42;0.70;;;;;;;12.59;79.59;96323.25;2618909;54;20038;-64
2022/04/07 12:28:13;;;;;;;0.88;0.88;;;;;;;12.53;79.41;96334.91;2618469;54;20034;-63
2022/04/07 12:30:46;;;;;;;;;;;;;;;12.39;79.86;96316.09;2619074;54;20039;-65
2022/04/07 12:33:40;;;;;;;0.90;0.45;;;;;;;12.47;80.48;96328.03;2618630;54;19939;-65
2022/04/07 12:36:11;;;;;;;;;;;;;;;12.63;80.47;96308.41;2618625;54;20038;-65
2022/04/07 12:38:41;;;;;;;1.35;0.65;;;;;;;12.54;80.63;96325.91;2618356;54;19947;-64
2022/04/07 12:41:13;;;;;;;0.80;0.43;;;;;;;12.36;81.01;96316.63;2618458;54;20570;-63
2022/04/07 12:43:54;;;;;;;0.80;0.80;;;;;;;12.21;81.33;96319.28;2619470;39;20376;-64
2022/04/07 12:46:24;;;;;;;0.52;0.50;;;;;;;12.12;82.04;96321.63;2620505;54;20053;-63
2022/04/07 12:49:07;;;;;;;2.00;1.58;;;;;;;12.14;83.20;96311.56;2622161;54;20561;-64
2022/04/07 12:51:38;;;;;;;0.47;0.47;;;;;;;12.03;83.07;96316.03;2622835;54;20044;-65
2022/04/07 12:54:10;;;;;;;2.05;1.00;;;;;;;11.90;84.26;96316.56;2622592;54;20088;-63
2022/04/07 12:56:42;;;;;;;1.55;1.45;;;;;;;11.84;83.98;96321.06;2620946;54;20551;-64
2022/04/07 12:59:15;;;;;;;1.48;1.00;;;;;;;11.77;83.97;96323.13;2618668;54;20551;-63
2022/04/07 13:01:49;;;;;;;3.05;1.80;;;;;;;11.71;85.25;96324.13;2618546;54;20038;-65
2022/04/07 13:04:19;;;;;;;;;;;;;;;11.68;85.84;96316.75;2618514;54;20562;-64
2022/04/07 13:06:49;;;;;;;2.70;2.00;;;;;;;11.71;86.24;96308.25;2618866;54;19939;-64
2022/04/07 13:09:20;;;;;;;1.00;0.90;;;;;;;11.72;86.36;96317.81;2618944;54;20038;-65
2022/04/07 13:11:49;;;;;;;0.60;0.50;;;;;;;11.70;85.81;96311.19;2621739;54;20542;-66
2022/04/07 13:14:28;;;;;;;0.68;0.68;;;;;;;11.72;86.29;96323.09;2623343;54;20083;-65
2022/04/07 13:16:58;;;;;;;0.98;0.77;;;;;;;11.73;86.00;96329.97;2623570;54;20045;-64
2022/04/07 13:19:27;;;;;;;2.22;1.45;;;;;;;11.60;86.35;96338.41;2623473;54;20574;-64
2022/04/07 13:21:57;;;;;;;1.85;1.02;;;;;;;11.56;86.64;96350.56;2623313;54;20041;-65
2022/04/07 13:24:27;;;;;;;1.75;1.05;;;;;;;11.54;86.86;96342.88;2622292;54;20030;-64
2022/04/07 13:26:57;;;;;;;1.00;0.90;;;;;;;11.55;87.65;96335.72;2622048;54;20031;-64
2022/04/07 13:29:30;;;;;;;0.98;0.93;;;;;;;11.41;88.05;96335.41;2622356;54;20590;-65
2022/04/07 13:31:59;;;;;;;0.77;0.77;;;;;;;11.35;88.70;96347.81;2623014;39;20450;-64
2022/04/07 13:34:29;;;;;;;1.60;1.15;;;;;;;11.31;89.02;96344.09;2622334;54;20026;-65
2022/04/07 13:36:58;;;;;;;1.23;1.13;;;;;;;11.28;89.15;96354.41;2621979;54;20045;-64
2022/04/07 13:39:28;;;;;;;2.45;1.00;;;;;;;11.26;88.90;96378.44;2618579;54;20069;-63
2022/04/07 13:41:58;;;;;;;0.85;0.85;;;;;;;11.29;88.30;96375.28;2617971;39;20450;-63
2022/04/07 13:44:31;;;;;;;1.10;1.00;;;;;;;11.30;88.53;96358.34;2618598;54;20038;-64
2022/04/07 13:47:01;;;;;;;1.63;0.60;;;;;;;11.35;88.04;96352.31;2619036;54;20041;-64
2022/04/07 13:49:31;;;;;;;0.65;0.65;;;;;;;11.43;87.61;96349.19;2619935;54;20042;-64
2022/04/07 13:52:00;;;;;;;0.70;0.70;;;;;;;11.46;86.94;96359.22;2620533;54;20034;-62
2022/04/07 13:54:30;;;;;;;1.60;0.90;;;;;;;11.49;86.58;96363.22;2620406;39;20432;-63
2022/04/07 13:57:00;;;;;;;1.08;1.00;;;;;;;11.52;85.96;96362.72;2619176;54;20038;-64
2022/04/07 13:59:33;;;;;;;4.25;3.08;;;;;;;11.55;85.43;96346.31;2620176;54;20557;-63
2022/04/07 14:02:03;;;;;;;2.75;2.20;;;;;;;11.57;85.30;96360.88;2619901;54;20035;-63
2022/04/07 14:04:33;;;;;;;1.48;1.25;;;;;;;11.58;85.22;96356.38;2619751;54;20042;-65
2022/04/07 14:07:03;;;;;;;0.70;0.70;;;;;;;11.63;85.50;96378.38;2619807;54;20630;-65
2022/04/07 14:09:34;;;;;;;1.33;1.20;;;;;;;11.76;85.22;96358.59;2619600;47;20578;-65
2022/04/07 14:12:04;;;;;;;1.00;1.00;;;;;;;11.82;85.33;96383.22;2619329;54;20038;-64
2022/04/07 14:14:36;;;;;;;2.65;1.00;;;;;;;11.85;84.57;96366.84;2619240;54;20057;-64
2022/04/07 14:17:06;;;;;;;0.73;0.50;;;;;;;11.84;84.37;96370.56;2619823;54;20037;-65
2022/04/07 14:19:36;;;;;;;0.90;0.90;;;;;;;11.84;84.03;96367.91;2618435;47;20033;-63
2022/04/07 14:22:07;;;;;;;0.60;0.60;;;;;;;11.86;83.49;96363.94;2618549;54;20045;-64
2022/04/07 14:24:37;;;;;;;1.48;1.38;;;;;;;11.88;83.70;96361.03;2618024;54;20030;-64
2022/04/07 14:27:07;;;;;;;1.58;1.48;;;;;;;11.91;83.49;96371.09;2617925;54;20038;-64
2022/04/07 14:29:39;;;;;;;1.35;0.98;;;;;;;11.89;83.52;96379.28;2618067;54;20030;-64
2022/04/07 14:32:10;;;;;;;1.88;1.20;;;;;;;11.88;83.12;96380.38;2617423;54;20033;-65
2022/04/07 14:34:41;;;;;;;1.45;1.35;;;;;;;11.86;83.01;96390.41;2617225;47;20034;-64
2022/04/07 14:37:10;;;;;;;3.22;1.30;;;;;;;11.90;83.61;96399.41;2617059;47;20034;-65
2022/04/07 14:39:40;;;;;;;1.23;0.95;;;;;;;11.89;82.22;96395.19;2618665;39;20431;-64
2022/04/07 14:42:10;;;;;;;1.50;1.08;;;;;;;12.08;82.25;96382.28;2618076;54;20086;-64
2022/04/07 14:44:43;;;;;;;1.73;1.45;;;;;;;12.19;81.82;96396.31;2617860;54;20039;-65
2022/04/07 14:47:13;;;;;;;1.70;1.10;;;;;;;12.23;81.35;96394.75;2617659;54;20030;-63
2022/04/07 14:49:43;;;;;;;2.78;1.45;;;;;;;12.48;79.92;96398.50;2618613;39;20423;-63
2022/04/07 14:52:14;;;;;;;1.77;1.23;;;;;;;12.61;77.98;96385.53;2618620;54;20045;-64
2022/04/07 14:54:44;;;;;;;4.25;1.88;;;;;;;12.81;76.94;96397.19;2618997;54;20035;-63
2022/04/07 14:57:14;;;;;;;3.20;1.73;;;;;;;12.94;75.88;96382.59;2618627;54;20041;-63
2022/04/07 14:59:46;;;;;;;2.45;1.52;;;;;;;13.13;74.72;96381.78;2618921;54;20071;-62
2022/04/07 15:02:16;;;;;;;3.28;1.55;;;;;;;13.28;72.95;96401.44;2618894;54;20042;-63
2022/04/07 15:04:46;;;;;;;3.70;1.42;;;;;;;13.25;67.72;96397.47;2618670;39;20224;-63
2022/04/07 15:07:16;;;;;;;4.85;1.50;;;;;;;13.18;66.01;96404.06;2618505;54;20050;-63
2022/04/07 15:09:46;;;;;;;7.93;2.47;;;;;;;13.13;66.77;96410.19;2618775;54;20042;-64
2022/04/07 15:12:15;;;;;;;7.97;2.20;;;;;;;13.03;65.09;96434.06;2618820;54;20034;-64
2022/04/07 15:14:47;;;;;;;6.32;1.92;;;;;;;12.93;64.19;96434.06;2618780;54;20057;-64
2022/04/07 15:17:17;;;;;;;5.30;1.85;;;;;;;13.08;64.66;96429.56;2617963;54;20069;-64
2022/04/07 15:19:47;;;;;;;8.00;2.30;;;;;;;13.09;63.56;96443.59;2618829;54;20038;-64
2022/04/07 15:22:16;;;;;;;5.90;2.10;;;;;;;13.05;62.82;96443.34;2618896;54;20037;-63
2022/04/07 15:24:46;;;;;;;5.25;1.30;;;;;;;13.04;63.79;96448.91;2619194;54;20030;-63
2022/04/07 15:27:16;;;;;;;6.63;2.25;;;;;;;12.97;63.27;96443.06;2618763;54;20054;-63
2022/04/07 15:29:48;;;;;;;3.15;1.65;;;;;;;13.14;62.62;96449.72;2618939;54;20038;-63
2022/04/07 15:32:18;;;;;;;5.03;2.03;;;;;;;13.09;62.78;96446.25;2620990;54;20046;-63
2022/04/07 15:34:47;;;;;;;3.47;1.42;;;;;;;13.01;62.00;96439.63;2621509;54;20038;-63
2022/04/07 15:37:18;;;;;;;4.03;1.70;;;;;;;12.77;62.17;96473.81;2619808;54;20046;-63
2022/04/07 15:39:47;;;;;;;7.80;2.53;;;;;;;12.82;62.97;96465.88;2618786;54;20065;-63
2022/04/07 15:42:17;;;;;;;4.82;2.13;;;;;;;12.66;62.38;96466.91;2618862;54;20035;-64
2022/04/07 15:44:50;;;;;;;5.65;2.03;;;;;;;12.61;63.29;96467.72;2618859;54;20057;-65
2022/04/07 15:47:19;;;;;;;4.50;1.65;;;;;;;12.63;63.09;96447.03;2618549;54;20046;-63
2022/04/07 15:49:49;;;;;;;4.57;2.08;;;;;;;12.68;62.50;96472.75;2618169;46;20109;-64
2022/04/07 15:52:19;;;;;;;5.25;1.90;;;;;;;12.64;61.77;96466.38;2618525;54;20030;-64
2022/04/07 15:54:49;;;;;;;5.57;1.67;;;;;;;12.60;60.93;96474.03;2618982;54;20146;-63
2022/04/07 15:57:19;;;;;;;3.78;1.55;;;;;;;12.64;60.42;96483.06;2618648;54;20026;-64
2022/04/07 15:59:52;;;;;;;4.30;1.60;;;;;;;12.77;57.67;96499.53;2618788;54;20042;-63
2022/04/07 16:02:22;;;;;;;5.22;2.08;;;;;;;13.03;57.37;96471.19;2618972;54;20125;-63
2022/04/07 16:04:52;;;;;;;6.13;1.58;;;;;;;13.22;55.20;96513.91;2618705;54;20042;-63
2022/04/07 16:07:25;;;;;;;4.05;1.50;;;;;;;13.42;55.45;96499.88;2618122;54;20026;-63
2022/04/07 16:09:54;;;;;;;5.47;2.13;;;;;;;13.62;53.83;96502.50;2619013;54;20034;-64
2022/04/07 16:12:24;;;;;;;6.88;2.20;;;;;;;13.61;50.83;96512.31;2618590;54;20284;-64
2022/04/07 16:14:57;;;;;;;6.57;1.30;;;;;;;13.63;48.08;96501.44;2618738;54;20065;-63